Elia Donati

Chefscout - Udinese
19 Nov 2028
Sonntag
Verarbeitung

Persönlichkeit

Anpassungsfähigkeit (15) Ehrgeiz (6) Kontroverse (9) Loyalität (17) Druck (1) Professionalität (9) Fairness (4) Temperament (1)

Profil

Trainerstil Demokratisch
Lizenz Nationale A
Entschlossenheit 10
Menschenführung 8
Motivation 14
Disziplin 8
Arbeitszufriedenheit
100%
Ermüdung
0%
Rolle Chefscout
Gehalt 100.5K p/W
Vertrag 14.03.2029

Leistung

Verhalten Gut
Trainingseffektivität
55%
Spielerentwicklung
40%
Verletzungsprävention
45%
Taktische Umsetzung
30%

Letzte Ereignisse

Nahm an einer Scouting-Besprechung teil jetzt
Nahm an einer Scouting-Besprechung teil jetzt
Nahm an einer Scouting-Besprechung teil jetzt
Empfahl ein Transferziel jetzt
Empfahl ein Transferziel jetzt
Empfahl ein Transferziel jetzt
Empfahl ein Transferziel jetzt
Spieler begutachtet 7T her

Aktuell beobachtet

184
Spieler Verein Status Fähigkeit Vertrauen Beobachtet Zuletzt beobachtet Letzte Stimme
Alejandro Almaraz NK Celje Aktiv 121 / 116 40% 3 18.11.2028 -
Harrison Armstrong Ipswich Town Aktiv 137 / 151 40% 3 18.11.2028 -
Bernardo Lima Porto Aktiv 116 / 122 40% 1 18.11.2028 -
Alessio Insignito Spezia Aktiv 103 / 120 40% 3 16.11.2028 -
Ayyoub Bouaddi Stoke City Aktiv 149 / 166 40% 2 16.11.2028 -
Vasilije Novičić IMT Aktiv 109 / 127 40% 2 16.11.2028 -
Andrija Bulatović Chamois Niortais Aktiv 134 / 144 40% 3 12.11.2028 -
Jack Shorrock Port Vale Aktiv 109 / 116 40% 1 12.11.2028 -
Cheveyo Tsawa Club Brugge Aktiv 132 / 127 40% 2 11.11.2028 -
Kiani Inge Groningen Aktiv 117 / 126 40% 1 11.11.2028 -
Felipe Pujol Vélez Aktiv 107 / 117 40% 1 11.11.2028 -
Riquelme Thompson-Jones Accrington Stanley Aktiv 116 / 121 40% 2 10.11.2028 -
Veljko Milosavljević Bournemouth Aktiv 152 / 157 40% 1 10.11.2028 -
Jan Bürger Northampton Town Aktiv 121 / 135 40% 2 09.11.2028 -
Felipe Obradovich Ferro Carril Oeste Aktiv 106 / 111 40% 1 09.11.2028 -
Louis Page Leicester City Aktiv 137 / 135 40% 2 07.11.2028 -
Chris Rigg West Ham United Aktiv 144 / 152 40% 1 07.11.2028 -
Abubacarr Sedi Kinteh Al-Ahli Aktiv 134 / 138 40% 2 13.10.2028 -
Harry Amass Manchester United Aktiv 147 / 156 40% 1 13.10.2028 -
Luka Vušković Tottenham Aktiv 147 / 151 40% 2 11.10.2028 -
Celías Ingenthron Platense Aktiv 115 / 121 40% 1 11.10.2028 -
Matías Magdaleno Estudiantes Aktiv 113 / 113 40% 1 10.10.2028 -
Christos Mouzakitis Hull City Aktiv 140 / 144 40% 2 08.10.2028 -
Giuseppe Caso Modena Verloren 127 / 127 79% 1 14.08.2028 -
Seydou Fofana Pacos de Ferreira Aktiv 102 / 108 40% 2 07.08.2028 -
Giovanni Leoni Lincoln City Aktiv 142 / 146 40% 1 07.08.2028 -
Honest Ahanor Atalanta Aktiv 146 / 156 40% 1 01.08.2028 -
Giovanni Cantizano Fulham Aktiv 124 / 122 40% 3 03.07.2028 -
Rio Ngumoha Plymouth Argyle Aktiv 140 / 152 40% 2 03.07.2028 -
Ibrahim Fullah Charlton Athletic Verloren 127 / 133 40% 3 26.06.2028 -
Ben Broggio Mansfield Town Aktiv 109 / 124 40% 2 26.06.2028 -
Ayden Heaven Portsmouth Aktiv 147 / 151 40% 1 13.06.2028 -
Devyne Rensch Virtus Entella Verloren 147 / 144 79% 1 12.06.2028 -
Jamal Iddrissou Pergolettese Aktiv 111 / 123 40% 10 02.06.2028 -
Valentín Dávila Talleres Aktiv 102 / 112 40% 3 02.06.2028 -
Trey Nyoni Rotherham United Aktiv 136 / 145 40% 1 31.05.2028 -
Jorthy Mokio ADO Den Haag Aktiv 137 / 137 40% 1 31.05.2028 -
Mateus Mané Burnley Aktiv 142 / 142 40% 6 28.05.2028 -
Babis Kostoulas Oxford United Aktiv 138 / 143 40% 9 28.05.2028 -
Luka Andrade Montevideo City Torque Aktiv 106 / 113 40% 1 28.05.2028 -
Lorenzo Venturino Juventus Aktiv 141 / 149 40% 7 27.05.2028 -
Ryan Kavuma-McQueen Accrington Stanley Aktiv 115 / 122 40% 7 27.05.2028 -
Shea Lacey Crystal Palace Aktiv 137 / 142 40% 3 27.05.2028 -
Cristian Carrara Guidonia Montecelio Aktiv 100 / 113 40% 2 27.05.2028 -
Vincenzo Damiano Atalanta Aktiv 102 / 102 40% 5 24.05.2028 -
Ryan Oné Sheffield United Aktiv 123 / 130 40% 5 24.05.2028 -
Fletcher Boyd Accrington Stanley Aktiv 99 / 103 40% 1 24.05.2028 -
Idrissa Guèye Virtus Entella Aktiv 123 / 114 40% 8 22.05.2028 -
Luca Williams-Barnett Walsall Aktiv 123 / 125 40% 6 22.05.2028 -
Kaye Furo Reading Aktiv 125 / 131 40% 4 22.05.2028 -
Martin Sherif Everton Aktiv 113 / 114 40% 7 22.05.2028 -
Igor Tyjon Barrow AFC Aktiv 115 / 128 40% 7 22.05.2028 -
Tyler Fletcher Rotherham United Aktiv 115 / 122 40% 4 22.05.2028 -
Edison Gruezo Guadalajara Aktiv 114 / 105 40% 2 18.05.2028 -
Marto Boychev CSKA 1948 Aktiv 111 / 116 40% 4 17.05.2028 -
Amin Nabizada Exeter City Aktiv 111 / 112 40% 1 17.05.2028 -
Jake Evans Crewe Alexandra Aktiv 108 / 130 40% 4 15.05.2028 -
Daniel Banjaqui Benfica Aktiv 124 / 126 40% 1 15.05.2028 -
Jeff Ekhator Juventus Aktiv 135 / 135 40% 10 14.05.2028 -
Joshua Ajala Walsall Aktiv 103 / 103 40% 2 14.05.2028 -
Braiden Graham Everton Aktiv 110 / 118 40% 5 12.05.2028 -
Nathan Mbala FC Metz Aktiv 106 / 112 40% 3 11.05.2028 -
Mateus Mide Porto Aktiv 108 / 115 40% 3 10.05.2028 -
Endrick Boca Juniors Aktiv 161 / 165 40% 5 10.05.2028 -
Nicolas Verkooijen PSV Aktiv 117 / 117 40% 11 06.05.2028 -
Eli Junior Kroupi Bournemouth Aktiv 150 / 144 40% 3 04.05.2028 -
Yannik Wagner Heidenheim Aktiv 112 / 122 40% 2 04.05.2028 -
Kerim Alajbegović Modena Aktiv 135 / 145 40% 2 03.05.2028 -
Josh Nichols Oldham Athletic Aktiv 123 / 133 40% 1 03.05.2028 -
Luca Fletcher Ipswich Town Aktiv 106 / 110 40% 1 03.05.2028 -
Eduard Ihnatov Ospitaletto Aktiv 99 / 99 40% 1 03.05.2028 -
Shumaira Mheuka Chelsea Aktiv 121 / 124 40% 2 26.04.2028 -
Seydou Fini Genoa Aktiv 124 / 123 40% 4 25.04.2028 -
Justin Clarke Everton Aktiv 108 / 114 40% 2 17.04.2028 -
Oskar Spiten-Nysæter AS Roma Aktiv 122 / 122 40% 3 16.04.2028 -
Romelle Donovan Brentford Aktiv 130 / 143 40% 1 15.04.2028 -
Ryan McAidoo Oldham Athletic Aktiv 120 / 136 40% 1 09.04.2028 -
Martim Cunha Porto Aktiv 104 / 117 40% 1 06.04.2028 -
Lovre Kulušić Dinamo Zagreb Aktiv 103 / 115 40% 4 02.04.2028 -
Otto Stange Borussia Mönchengladbach Aktiv 129 / 122 40% 6 29.03.2028 -
Bernard Nguene Standard Liege Aktiv 118 / 117 40% 2 20.03.2028 -
Talal Haji Al-Ittihad Aktiv 103 / 109 40% 3 17.03.2028 -
Kevin Filling AIK Aktiv 98 / 111 40% 4 16.03.2028 -
Anas Alaoui Lecco Aktiv 106 / 99 40% 3 09.03.2028 -
Julian Hall Real Salt Lake Aktiv 109 / 119 40% 1 23.02.2028 -
Shane Nti Brighton Aktiv 106 / 118 40% 1 16.02.2028 -
Ricardo Mathias AS Roma Aktiv 123 / 123 40% 1 16.02.2028 -
Emanuele Rao Napoli Aktiv 110 / 119 40% 1 12.02.2028 -
Víctor Guzmán Sporting CP Aktiv 105 / 114 40% 1 07.02.2028 -
Mateo Retegui Atlético Madrid Aktiv 156 / 156 68% 1 01.01.2028 -
Franculino Brighton Aktiv 137 / 141 67% 1 01.01.2028 -
Augusto Bando Ascoli Aktiv 109 / 127 40% 1 31.12.2027 -
Corrie Ndaba Lecce Aktiv 131 / 127 79% 1 30.08.2027 -
Kazunari Kita Real Sociedad Aktiv 103 / 107 40% 1 26.07.2027 -
Salvatore Elia Cremonese Aktiv 124 / 134 79% 1 14.06.2027 -
John Yeboah Venezia Aktiv 119 / 109 79% 1 05.06.2027 -
Borja Sainz Udinese Aktiv 144 / 145 67% 1 01.06.2027 Befürworten
Enrico Delprato Parma Aktiv 141 / 150 40% 9 29.05.2027 -
Evan N'Dicka AS Roma Aktiv 161 / 160 40% 8 29.05.2027 -
Odilon Kossounou Atalanta Aktiv 143 / 138 40% 10 27.05.2027 -
Marco Brescianini Fiorentina Aktiv 139 / 133 40% 5 27.05.2027 -
Arthur Atta Fiorentina Aktiv 148 / 144 40% 7 26.05.2027 -
Diego Gómez Brighton Aktiv 142 / 154 40% 3 26.05.2027 -
Manu Koné AS Roma Aktiv 164 / 152 40% 11 23.05.2027 -
Nuno Tavares Lazio Aktiv 151 / 140 40% 4 23.05.2027 -
Raoul Bellanova Atalanta Aktiv 152 / 157 40% 9 22.05.2027 -
Hans Nicolussi Caviglia Parma Aktiv 131 / 129 40% 10 22.05.2027 -
Kenneth Taylor Lazio Aktiv 151 / 142 40% 5 21.05.2027 -
Nicolò Fagioli Fiorentina Aktiv 145 / 140 40% 6 21.05.2027 -
Tommaso Pobega Bologna Aktiv 134 / 149 40% 8 19.05.2027 -
Massimo Zilli Spezia Aktiv 112 / 101 40% 4 19.05.2027 -
Giorgos Koutsias Famalicao Aktiv 113 / 120 40% 2 19.05.2027 -
Lucas Da Cunha Como Aktiv 147 / 142 40% 6 14.05.2027 -
Nicolò Rovella Lazio Aktiv 147 / 141 40% 4 14.05.2027 -
Lewis Ferguson Bologna Aktiv 141 / 146 40% 8 11.05.2027 -
Giorgio Scalvini Atalanta Aktiv 146 / 153 40% 2 11.05.2027 -
Cesare Casadei Torino Aktiv 139 / 125 40% 5 06.05.2027 -
Stiven Shpendi Empoli Aktiv 123 / 119 40% 1 05.05.2027 -
Billy Gilmour Napoli Aktiv 141 / 139 40% 9 02.05.2027 -
Trevoh Chalobah Como Aktiv 153 / 164 40% 7 02.05.2027 Beobachten
Adrián Bernabé Parma Aktiv 136 / 149 40% 6 30.04.2027 -
Giorgi Kvernadze Frosinone Aktiv 126 / 123 40% 3 29.04.2027 -
Curtis Jones Inter Aktiv 162 / 165 40% 10 29.04.2027 -
Filippo Distefano Empoli Aktiv 112 / 114 40% 2 29.04.2027 -
Dinis Rodrigues Napoli Aktiv 109 / 108 40% 1 29.04.2027 -
Leo Østigård Genoa Aktiv 141 / 148 40% 1 22.04.2027 -
Manfred Ugalde Spartak Moscow Aktiv 137 / 131 40% 1 05.04.2027 -
Thom van Bergen Groningen Aktiv 111 / 118 40% 1 05.04.2027 -
Matija Frigan Parma Aktiv 121 / 132 40% 2 23.03.2027 -
Ilyas Ansah Hull City Aktiv 131 / 131 40% 3 23.03.2027 -
Alessandro Bastoni Inter Aktiv 166 / 162 40% 6 21.03.2027 -
Wesley AS Roma Aktiv 151 / 143 40% 1 18.03.2027 -
Ismaël Koné Sassuolo Aktiv 132 / 129 40% 1 10.03.2027 -
Maksim Samorodov Akhmat Grozny Aktiv 116 / 135 40% 1 03.03.2027 -
Gustavo Mantuan Zenit Aktiv 141 / 149 40% 2 24.02.2027 -
David Romero Parma Aktiv 127 / 134 40% 1 24.02.2027 -
Armstrong Oko-Flex Levski Aktiv 123 / 130 40% 1 23.02.2027 -
Juan Miranda Bologna Aktiv 139 / 139 40% 1 09.02.2027 -
Giovanni Zaro Ravenna Aktiv 127 / 110 79% 1 25.01.2027 Befürworten
Reda Khadra Qarabag Aktiv 130 / 115 40% 3 18.01.2027 -
Santiago Pierotti Lecce Aktiv 130 / 121 40% 1 18.01.2027 -
Leandrinho Sharjah Aktiv 105 / 106 40% 1 13.01.2027 -
Abdou Harroui Hellas Verona Aktiv 128 / 112 79% 1 11.01.2027 Befürworten
Riyad Idrissi Cagliari Aktiv 120 / 132 75% 4 05.01.2027 Klar befürworten
Gianluca Scamacca Atalanta Aktiv 151 / 151 40% 4 28.12.2026 -
Petar Musa FC Dallas Aktiv 138 / 140 40% 6 27.12.2026 -
Donyell Malen AS Roma Aktiv 146 / 156 40% 7 25.12.2026 -
Giacomo Raspadori Atalanta Aktiv 145 / 154 40% 8 15.12.2026 -
Mathys Tel Tottenham Aktiv 140 / 145 40% 1 14.12.2026 -
Steven Bergwijn Al-Ittihad Aktiv 146 / 148 40% 4 13.12.2026 -
Matías Soulé AS Roma Aktiv 153 / 148 40% 2 10.12.2026 Mehr Infos nötig
Nicolò Cambiaghi Bologna Aktiv 140 / 127 40% 1 09.12.2026 -
Mateo Pellegrino Fiorentina Aktiv 143 / 146 40% 5 07.12.2026 -
Christian Pulisic AC Milan Aktiv 161 / 156 40% 8 29.11.2026 -
Che Adams Torino Aktiv 143 / 135 40% 1 28.11.2026 -
Alessio Zerbin Frosinone Aktiv 133 / 137 40% 2 26.11.2026 -
Gustav Isaksen Lazio Aktiv 143 / 154 40% 1 20.11.2026 -
Tyrhys Dolan Espanyol Aktiv 137 / 135 40% 1 20.11.2026 -
André-Franck Zambo Anguissa Napoli Aktiv 156 / 164 40% 2 19.11.2026 -
Andrea Pinamonti Lazio Aktiv 139 / 148 40% 2 14.11.2026 -
Mario Pašalić Atalanta Aktiv 152 / 138 40% 1 09.11.2026 -
Taty Castellanos West Ham United Aktiv 146 / 145 40% 4 25.10.2026 -
Federico Chiesa Liverpool Aktiv 158 / 163 40% 3 24.10.2026 -
Rodrigo Muniz Fulham Aktiv 143 / 133 40% 2 22.10.2026 -
Cody Gakpo Liverpool Aktiv 159 / 165 40% 5 21.10.2026 -
Jacob Ramsey Newcastle United Aktiv 144 / 139 40% 1 20.10.2026 -
Dominic Solanke Tottenham Aktiv 144 / 139 40% 3 19.10.2026 -
Pervis Estupiñán AC Milan Aktiv 142 / 143 40% 1 17.10.2026 -
Jarrod Bowen West Ham United Aktiv 154 / 151 40% 3 14.10.2026 -
Martín Ojeda Orlando City Aktiv 142 / 147 40% 1 13.10.2026 -
Yeremy Pino Crystal Palace Aktiv 149 / 147 40% 1 12.10.2026 -
Xavi Simons Tottenham Aktiv 154 / 158 40% 2 10.10.2026 -
Ismaïla Sarr Crystal Palace Aktiv 146 / 139 40% 2 02.10.2026 -
Georginio Rutter Brighton Aktiv 144 / 145 40% 1 02.10.2026 -
Tammy Abraham Aston Villa Aktiv 146 / 146 40% 2 30.09.2026 -
Nicolas Jackson Aston Villa Aktiv 149 / 139 40% 2 22.09.2026 -
Yankuba Minteh Brighton Aktiv 148 / 160 40% 1 22.09.2026 -
Khéphren Thuram Juventus Aktiv 158 / 156 40% 1 19.09.2026 -
Thiago Brentford Aktiv 142 / 143 40% 2 15.09.2026 -
Eddie Nketiah Crystal Palace Aktiv 143 / 143 40% 1 15.09.2026 -
Carlos Rodríguez Cruz Azul Aktiv 142 / 128 40% 1 14.09.2026 -
Ousmane Dembélé Paris Saint-Germain Aktiv 179 / 187 40% 2 07.09.2026 -
Kobbie Mainoo Manchester United Aktiv 143 / 156 40% 1 10.08.2026 -
Adrien Rabiot AC Milan Aktiv 158 / 164 40% 1 02.08.2026 -